CPX663 Details

Departure: Orlando International Airport (KMCO)
Arrival: Miami International Airport (KMIA)
Route: MLB ANNEY4


Current Weather Information
KMCO 221153Z 27003KT 10SM CLR 12/08 A3006 RMK AO2 SLP179 T01170078 10144 20100 53011
KMIA 221153Z 32006KT 10SM CLR 16/12 A3007 RMK AO2 SLP184 T01560117 10172 20150 53016